Time;durP1;ratioP1;P1;durP2;ratioP2;P2;SDS_P1;SDS_P2;PMS_P1;PMS_P2;Temp;Humidity;BMP_temperature;BMP_pressure;BME280_temperature;BME280_humidity;BME280_pressure;Samples;Min_cycle;Max_cycle;Signal;HPM_P1;HPM_P2
2022/07/04 00:01:12;;;;;;;2.28;1.00;;;19.00;99.90;;;;;;4992069;28;20188;-89
2022/07/04 00:03:37;;;;;;;3.72;0.98;;;19.00;99.90;;;;;;4991959;28;20187;-89
2022/07/04 00:06:03;;;;;;;3.88;1.23;;;19.00;99.90;;;;;;4993191;28;20542;-89
2022/07/04 00:08:29;;;;;;;2.25;1.00;;;18.90;99.90;;;;;;4991966;28;20176;-89
2022/07/04 00:10:55;;;;;;;2.65;1.23;;;18.90;99.90;;;;;;4991545;28;20195;-88
2022/07/04 00:13:21;;;;;;;1.70;0.80;;;18.90;99.90;;;;;;4991813;28;20627;-88
2022/07/04 00:15:47;;;;;;;4.30;1.17;;;18.80;99.90;;;;;;4991966;28;20208;-88
2022/07/04 00:18:13;;;;;;;2.10;1.00;;;18.80;99.90;;;;;;4992258;28;20168;-88
2022/07/04 00:20:39;;;;;;;4.43;1.30;;;18.70;99.90;;;;;;4991738;28;20179;-89
2022/07/04 00:23:05;;;;;;;1.88;1.00;;;18.70;99.90;;;;;;5008271;28;20573;-88
2022/07/04 00:25:30;;;;;;;4.78;0.98;;;18.70;99.90;;;;;;4992166;28;20211;-88
2022/07/04 00:27:56;;;;;;;2.38;1.10;;;18.70;99.90;;;;;;4992237;28;20655;-89
2022/07/04 00:30:22;;;;;;;3.53;1.05;;;18.70;99.90;;;;;;4991862;28;20208;-89
2022/07/04 00:32:54;;;;;;;1.52;1.00;;;18.60;99.90;;;;;;4998972;28;20254;-89
2022/07/04 00:35:21;;;;;;;5.40;1.00;;;18.70;99.90;;;;;;5011319;28;20190;-88
2022/07/04 00:37:49;;;;;;;3.90;1.27;;;18.70;99.90;;;;;;5011480;28;20163;-88
2022/07/04 00:40:15;;;;;;;4.22;1.08;;;18.70;99.90;;;;;;5006341;28;20230;-88
2022/07/04 00:42:41;;;;;;;1.80;1.00;;;18.70;99.90;;;;;;4990673;28;20207;-89
2022/07/04 00:45:08;;;;;;;1.00;0.88;;;18.60;99.90;;;;;;4972086;28;20544;-89
2022/07/04 00:47:35;;;;;;;1.25;1.00;;;18.60;99.90;;;;;;4974754;28;20536;-88
2022/07/04 00:50:01;;;;;;;1.83;0.77;;;18.60;99.90;;;;;;4991438;28;20200;-87
2022/07/04 00:52:28;;;;;;;2.55;1.00;;;18.50;99.90;;;;;;4991609;28;20197;-90
2022/07/04 00:54:54;;;;;;;1.85;0.80;;;18.50;99.90;;;;;;5007636;28;20161;-88
2022/07/04 00:57:20;;;;;;;0.98;0.80;;;18.40;99.90;;;;;;4991287;28;20200;-88
2022/07/04 00:59:45;;;;;;;1.77;0.95;;;18.30;99.90;;;;;;4990808;28;20539;-87
2022/07/04 01:02:11;;;;;;;2.45;0.75;;;18.30;99.90;;;;;;4992105;28;20623;-89
2022/07/04 01:04:37;;;;;;;1.48;0.70;;;18.30;99.90;;;;;;4991042;28;20183;-90
2022/07/04 01:07:05;;;;;;;2.10;0.88;;;18.20;99.90;;;;;;4991059;28;20748;-87
2022/07/04 01:09:31;;;;;;;3.10;0.80;;;18.10;99.90;;;;;;4992369;28;20194;-88
2022/07/04 01:11:56;;;;;;;1.02;0.68;;;18.10;99.90;;;;;;4992464;28;20564;-88
2022/07/04 01:14:22;;;;;;;1.15;0.70;;;18.10;99.90;;;;;;4990662;28;20192;-88
2022/07/04 01:16:48;;;;;;;1.20;0.75;;;18.10;99.90;;;;;;4990820;28;20218;-88
2022/07/04 01:19:14;;;;;;;2.50;0.70;;;18.00;99.90;;;;;;4990756;28;20254;-88
2022/07/04 01:21:40;;;;;;;3.22;0.90;;;18.00;99.90;;;;;;4990488;28;20667;-87
2022/07/04 01:24:06;;;;;;;2.83;0.73;;;18.00;99.90;;;;;;4987223;28;20228;-88
2022/07/04 01:26:33;;;;;;;5.07;0.80;;;17.90;99.90;;;;;;4989238;28;20207;-87
2022/07/04 01:28:58;;;;;;;0.88;0.63;;;17.90;99.90;;;;;;4990196;28;20642;-88
2022/07/04 01:31:24;;;;;;;1.98;0.73;;;17.90;99.90;;;;;;4997854;28;20199;-88
2022/07/04 01:33:50;;;;;;;1.42;0.70;;;17.90;99.90;;;;;;5010294;28;20662;-88
2022/07/04 01:36:16;;;;;;;3.15;0.90;;;17.80;99.90;;;;;;5011008;28;20624;-88
2022/07/04 01:38:41;;;;;;;1.00;0.60;;;17.80;99.90;;;;;;5012095;28;20171;-88
2022/07/04 01:41:08;;;;;;;0.70;0.70;;;17.70;99.90;;;;;;5012106;28;20200;-89
2022/07/04 01:43:35;;;;;;;1.50;0.80;;;17.70;99.90;;;;;;5011058;28;20175;-90
2022/07/04 01:46:01;;;;;;;1.65;0.80;;;17.70;99.90;;;;;;5002294;28;20207;-87
2022/07/04 01:48:26;;;;;;;1.45;0.70;;;17.60;99.90;;;;;;4991717;28;20247;-88
2022/07/04 01:50:52;;;;;;;2.00;0.80;;;17.60;99.90;;;;;;4979157;28;20200;-89
2022/07/04 01:53:18;;;;;;;1.88;0.70;;;17.50;99.90;;;;;;4970420;28;20176;-89
2022/07/04 01:55:44;;;;;;;2.35;1.02;;;17.60;99.90;;;;;;4983011;28;20654;-90
2022/07/04 01:58:10;;;;;;;2.28;0.90;;;17.50;99.90;;;;;;4990066;28;20179;-89
2022/07/04 02:03:20;;;;;;;1.20;0.60;;;17.40;99.90;;;;;;4991119;28;20243;-88
2022/07/04 02:05:46;;;;;;;3.92;0.80;;;17.30;99.90;;;;;;4990052;28;20271;-88
2022/07/04 02:08:12;;;;;;;1.30;0.70;;;17.30;99.90;;;;;;4990250;28;20183;-88
2022/07/04 02:10:37;;;;;;;6.43;0.70;;;17.30;99.90;;;;;;4989918;28;20196;-88
2022/07/04 02:13:03;;;;;;;1.38;0.70;;;17.30;99.90;;;;;;4990217;28;20176;-87
2022/07/04 02:15:39;;;;;;;3.63;0.90;;;17.20;99.90;;;;;;4990730;28;20196;-89
2022/07/04 02:18:09;;;;;;;1.25;0.73;;;17.10;99.90;;;;;;5006670;28;20214;-89
2022/07/04 02:20:41;;;;;;;2.83;0.90;;;17.10;99.90;;;;;;4999270;28;20199;-89
2022/07/04 02:23:07;;;;;;;2.00;0.80;;;17.10;99.90;;;;;;4999184;28;20695;-88
2022/07/04 02:25:33;;;;;;;4.10;0.90;;;17.10;99.90;;;;;;4989780;28;20607;-90
2022/07/04 02:27:59;;;;;;;1.00;0.70;;;17.10;99.90;;;;;;5006169;28;20179;-89
2022/07/04 02:30:25;;;;;;;0.73;0.70;;;17.00;99.90;;;;;;4990526;28;20573;-87
2022/07/04 02:32:51;;;;;;;1.25;0.73;;;17.00;99.90;;;;;;5006601;28;20180;-88
2022/07/04 02:35:18;;;;;;;1.95;0.77;;;17.00;99.90;;;;;;4990385;28;20218;-89
2022/07/04 02:37:44;;;;;;;4.35;0.90;;;16.80;99.90;;;;;;4992005;28;20602;-87
2022/07/04 02:40:10;;;;;;;1.67;0.77;;;16.80;99.90;;;;;;4994418;28;20171;-87
2022/07/04 02:42:41;;;;;;;0.80;0.60;;;16.80;99.90;;;;;;4994719;28;20614;-87
2022/07/04 02:45:09;;;;;;;1.38;0.90;;;16.70;99.90;;;;;;4994341;28;20646;-88
2022/07/04 02:47:35;;;;;;;1.83;0.75;;;16.70;99.90;;;;;;5010706;28;20246;-88
2022/07/04 02:50:02;;;;;;;1.45;0.93;;;16.70;99.90;;;;;;4994341;28;20237;-88
2022/07/04 02:52:28;;;;;;;1.80;1.00;;;16.60;99.90;;;;;;4994559;28;20180;-88
2022/07/04 02:54:54;;;;;;;1.08;0.80;;;16.50;99.90;;;;;;4995470;28;20156;-88
2022/07/04 02:57:20;;;;;;;1.25;0.95;;;16.50;99.90;;;;;;4994141;28;20204;-90
2022/07/04 02:59:46;;;;;;;2.75;0.90;;;16.50;99.90;;;;;;4994387;28;20176;-87
2022/07/04 03:02:12;;;;;;;3.78;1.17;;;16.50;99.90;;;;;;4986194;28;20199;-89
2022/07/04 03:04:39;;;;;;;3.47;1.00;;;16.40;99.90;;;;;;4974778;28;20172;-88
2022/07/04 03:07:07;;;;;;;1.77;1.02;;;16.40;99.90;;;;;;4985801;28;20251;-88
2022/07/04 03:09:33;;;;;;;1.48;0.90;;;16.40;99.90;;;;;;4974841;28;20188;-88
2022/07/04 03:11:59;;;;;;;1.48;0.82;;;16.40;99.90;;;;;;4985594;28;20231;-87
2022/07/04 03:14:25;;;;;;;4.00;1.48;;;16.40;99.90;;;;;;5010466;28;20218;-88
2022/07/04 03:16:51;;;;;;;2.10;1.00;;;16.40;99.90;;;;;;4979214;28;20208;-89
2022/07/04 03:19:17;;;;;;;2.83;1.02;;;16.40;99.90;;;;;;4974778;28;20235;-88
2022/07/04 03:21:43;;;;;;;2.13;1.00;;;16.40;99.90;;;;;;4974609;28;20258;-89
2022/07/04 03:24:10;;;;;;;1.30;0.80;;;16.40;99.90;;;;;;4975533;28;20299;-88
2022/07/04 03:26:35;;;;;;;2.55;1.10;;;16.40;99.90;;;;;;4974399;28;20215;-88
2022/07/04 03:29:02;;;;;;;1.50;1.10;;;16.40;99.90;;;;;;4975713;28;20164;-88
2022/07/04 03:31:29;;;;;;;2.58;1.20;;;16.30;99.90;;;;;;4974230;28;20742;-87
2022/07/04 03:33:55;;;;;;;3.72;1.10;;;16.30;99.90;;;;;;4974480;28;20262;-88
2022/07/04 03:36:21;;;;;;;1.60;1.05;;;16.20;99.90;;;;;;4974321;28;20207;-88
2022/07/04 03:38:47;;;;;;;1.35;0.85;;;16.20;99.90;;;;;;4974324;28;20267;-88
2022/07/04 03:41:13;;;;;;;2.38;0.90;;;16.20;99.90;;;;;;4974179;28;20216;-88
2022/07/04 03:43:39;;;;;;;3.65;1.15;;;16.20;99.90;;;;;;4974039;28;20212;-88
2022/07/04 03:46:05;;;;;;;2.92;1.20;;;16.10;99.90;;;;;;4973761;28;20200;-88
2022/07/04 03:48:31;;;;;;;2.85;1.27;;;16.20;99.90;;;;;;4973631;28;20231;-89
2022/07/04 03:50:57;;;;;;;1.40;0.95;;;16.20;99.90;;;;;;4973903;28;20290;-88
2022/07/04 03:53:23;;;;;;;2.50;1.10;;;16.30;99.90;;;;;;4973778;28;20177;-89
2022/07/04 03:55:49;;;;;;;1.85;0.98;;;16.20;99.90;;;;;;4973487;28;20251;-90
2022/07/04 03:58:14;;;;;;;1.05;0.85;;;16.20;99.90;;;;;;4973743;28;20185;-87
2022/07/04 04:00:41;;;;;;;2.85;1.30;;;16.20;99.90;;;;;;4973709;28;20207;-88
2022/07/04 04:05:52;;;;;;;3.55;1.00;;;16.20;99.90;;;;;;4974989;28;20698;-88
2022/07/04 04:08:18;;;;;;;3.70;1.25;;;16.10;99.90;;;;;;4973797;28;20176;-88
2022/07/04 04:10:44;;;;;;;2.22;1.20;;;16.20;99.90;;;;;;4973586;28;20310;-88
2022/07/04 04:13:10;;;;;;;2.47;1.20;;;16.20;99.90;;;;;;4973401;28;20651;-87
2022/07/04 04:15:35;;;;;;;2.45;0.90;;;16.30;99.90;;;;;;4974876;28;20223;-88
2022/07/04 04:18:01;;;;;;;1.00;0.82;;;16.30;99.90;;;;;;4973280;28;20184;-88
2022/07/04 04:20:27;;;;;;;2.25;1.25;;;16.30;99.90;;;;;;4973322;28;20624;-89
2022/07/04 04:22:53;;;;;;;2.38;1.10;;;16.30;99.90;;;;;;4973486;28;20232;-87
2022/07/04 04:25:19;;;;;;;3.30;1.10;;;16.30;99.90;;;;;;4974420;28;20165;-87
2022/07/04 04:27:44;;;;;;;2.30;1.05;;;16.30;99.90;;;;;;4974445;28;20165;-87
2022/07/04 04:30:10;;;;;;;2.53;0.80;;;16.30;99.90;;;;;;4973279;28;20217;-88
2022/07/04 04:32:36;;;;;;;2.78;1.10;;;16.30;99.90;;;;;;4984265;28;20180;-88
2022/07/04 04:35:03;;;;;;;1.75;1.20;;;16.30;99.90;;;;;;4993943;28;20168;-87
2022/07/04 04:37:28;;;;;;;2.25;1.30;;;16.30;99.90;;;;;;4992541;28;20195;-89
2022/07/04 04:39:54;;;;;;;2.88;1.17;;;16.30;99.90;;;;;;5008991;28;20801;-87
2022/07/04 04:42:20;;;;;;;2.47;1.08;;;16.40;99.90;;;;;;5008722;28;20183;-87
2022/07/04 04:44:46;;;;;;;2.20;1.20;;;16.40;99.90;;;;;;5009294;28;20176;-88
2022/07/04 04:47:11;;;;;;;1.70;1.30;;;16.50;99.90;;;;;;5008501;28;20234;-88
2022/07/04 04:49:37;;;;;;;3.97;1.75;;;16.60;99.90;;;;;;5008640;28;20560;-88
2022/07/04 04:52:03;;;;;;;2.92;1.30;;;16.80;99.90;;;;;;5008431;28;20726;-89
2022/07/04 04:54:29;;;;;;;2.88;1.30;;;16.80;99.90;;;;;;4992325;28;20265;-87
2022/07/04 04:56:55;;;;;;;2.33;1.70;;;16.80;99.90;;;;;;4991634;28;20195;-89
2022/07/04 04:59:21;;;;;;;3.67;1.70;;;16.90;99.90;;;;;;4991777;28;20172;-89
2022/07/04 05:01:47;;;;;;;3.63;1.50;;;17.00;99.90;;;;;;4991176;28;20192;-87
2022/07/04 05:04:14;;;;;;;1.92;1.17;;;17.00;99.90;;;;;;4992271;28;20698;-87
2022/07/04 05:06:40;;;;;;;1.98;1.30;;;17.00;99.90;;;;;;4991850;28;20214;-88
2022/07/04 05:09:06;;;;;;;3.80;1.38;;;17.00;99.90;;;;;;4992547;28;20161;-88
2022/07/04 05:11:32;;;;;;;2.83;1.40;;;17.00;99.90;;;;;;4992044;28;20254;-89
2022/07/04 05:13:57;;;;;;;5.07;1.80;;;17.10;99.90;;;;;;4985964;28;20189;-89
2022/07/04 05:16:23;;;;;;;1.60;1.50;;;17.10;99.90;;;;;;4989439;28;20239;-89
2022/07/04 05:18:51;;;;;;;3.22;1.42;;;17.10;99.90;;;;;;4973077;28;20176;-89
2022/07/04 05:21:17;;;;;;;3.25;1.55;;;17.20;99.90;;;;;;4977261;28;20241;-89
2022/07/04 05:23:43;;;;;;;4.15;1.70;;;17.20;99.90;;;;;;4992362;28;20326;-90
2022/07/04 05:26:08;;;;;;;3.15;1.85;;;17.20;99.90;;;;;;4992101;28;20247;-87
2022/07/04 05:28:34;;;;;;;3.45;1.85;;;17.30;99.90;;;;;;4987775;28;20190;-88
2022/07/04 05:31:00;;;;;;;5.13;1.45;;;17.30;99.90;;;;;;4991551;28;20203;-88
2022/07/04 05:33:28;;;;;;;3.58;1.50;;;17.30;99.90;;;;;;4988018;28;20204;-87
2022/07/04 05:35:55;;;;;;;4.95;1.60;;;17.40;99.90;;;;;;4990452;28;20222;-91
2022/07/04 05:38:30;;;;;;;2.92;1.60;;;17.40;99.90;;;;;;4993595;28;20183;-88
2022/07/04 05:40:58;;;;;;;4.78;1.55;;;17.50;99.90;;;;;;4978009;28;20275;-89
2022/07/04 05:43:27;;;;;;;3.63;1.85;;;17.50;99.90;;;;;;4974009;28;20165;-90
2022/07/04 05:45:55;;;;;;;3.58;1.70;;;17.50;99.90;;;;;;4973751;28;20200;-89
2022/07/04 05:48:20;;;;;;;3.63;1.50;;;17.60;99.90;;;;;;4973706;28;20255;-89
2022/07/04 05:50:46;;;;;;;3.50;1.20;;;17.70;99.90;;;;;;4973118;28;20295;-88
2022/07/04 05:53:12;;;;;;;3.00;1.75;;;17.70;99.90;;;;;;4973571;28;20537;-89
2022/07/04 05:55:40;;;;;;;4.22;1.50;;;17.70;99.90;;;;;;4973317;28;20200;-87
2022/07/04 05:58:13;;;;;;;2.47;1.33;;;17.70;99.90;;;;;;4974352;28;20173;-88
2022/07/04 06:00:46;;;;;;;9.23;1.73;;;17.80;99.90;;;;;;4973737;28;20416;-89
2022/07/04 06:03:13;;;;;;;3.33;1.17;;;17.80;99.90;;;;;;4973542;28;20211;-89
2022/07/04 06:05:43;;;;;;;2.92;1.40;;;17.80;99.90;;;;;;4973805;28;20565;-89
2022/07/04 06:08:09;;;;;;;3.08;1.10;;;17.90;99.90;;;;;;4973730;28;20172;-88
2022/07/04 06:10:44;;;;;;;2.25;0.90;;;17.80;99.90;;;;;;4973672;28;20562;-89
2022/07/04 06:13:15;;;;;;;3.25;1.20;;;17.80;99.90;;;;;;4973614;28;20180;-89
2022/07/04 06:15:46;;;;;;;3.42;0.95;;;17.80;99.90;;;;;;4973578;28;20208;-88
2022/07/04 06:18:15;;;;;;;8.13;1.40;;;17.80;99.90;;;;;;4973476;28;20231;-87
2022/07/04 06:20:42;;;;;;;4.53;1.65;;;17.80;99.90;;;;;;4973525;28;20608;-87
2022/07/04 06:23:08;;;;;;;3.22;1.10;;;17.80;99.90;;;;;;4971956;28;20306;-88
2022/07/04 06:25:34;;;;;;;2.75;1.20;;;17.90;99.90;;;;;;4972302;28;20202;-89
2022/07/04 06:28:06;;;;;;;2.25;0.80;;;18.00;99.90;;;;;;4984562;28;20176;-90
2022/07/04 06:30:33;;;;;;;2.15;0.90;;;18.00;99.70;;;;;;4992840;28;20683;-88
2022/07/04 06:32:59;;;;;;;3.45;0.70;;;18.00;99.90;;;;;;4992551;28;20176;-88
2022/07/04 06:38:25;;;;;;;3.80;0.90;;;18.10;98.00;;;;;;4994256;28;20255;-88
2022/07/04 06:40:55;;;;;;;1.98;0.73;;;18.20;98.90;;;;;;4992855;28;20218;-89
2022/07/04 06:43:25;;;;;;;2.10;0.60;;;18.20;99.20;;;;;;4992814;28;20264;-88
2022/07/04 06:45:55;;;;;;;5.80;0.77;;;18.30;98.30;;;;;;4992683;28;20207;-89
2022/07/04 06:48:22;;;;;;;3.05;0.90;;;18.40;97.90;;;;;;4992613;28;20263;-90
2022/07/04 06:50:50;;;;;;;2.08;0.60;;;18.40;97.70;;;;;;4993648;28;20744;-88
2022/07/04 06:53:17;;;;;;;3.72;0.88;;;18.60;97.90;;;;;;4992701;28;20168;-87
2022/07/04 06:55:43;;;;;;;1.25;0.90;;;18.70;96.60;;;;;;4988887;28;20254;-89
2022/07/04 06:58:09;;;;;;;1.27;0.60;;;18.90;96.10;;;;;;4992473;28;20636;-88
2022/07/04 07:00:35;;;;;;;1.45;0.65;;;18.90;96.70;;;;;;5004860;28;20274;-89
2022/07/04 07:03:02;;;;;;;1.77;0.65;;;19.00;95.90;;;;;;4990137;28;20216;-89
2022/07/04 07:05:31;;;;;;;3.05;1.00;;;19.10;95.80;;;;;;4991238;28;20204;-89
2022/07/04 07:07:57;;;;;;;1.17;0.60;;;19.20;95.20;;;;;;4989758;28;20206;-89
2022/07/04 07:10:22;;;;;;;1.88;0.80;;;19.40;95.40;;;;;;4990293;28;20223;-89
2022/07/04 07:12:48;;;;;;;2.42;0.85;;;19.50;95.60;;;;;;4990244;28;20198;-88
2022/07/04 07:15:16;;;;;;;2.05;0.90;;;19.70;95.40;;;;;;4989663;28;20709;-89
2022/07/04 07:17:42;;;;;;;1.33;0.60;;;19.80;95.00;;;;;;4990999;28;20520;-88
2022/07/04 07:20:08;;;;;;;2.10;0.90;;;20.00;95.70;;;;;;4990323;28;20183;-87
2022/07/04 07:22:34;;;;;;;1.60;0.60;;;20.10;94.80;;;;;;4991599;28;20235;-89
2022/07/04 07:25:00;;;;;;;2.72;0.90;;;20.20;95.70;;;;;;4993256;28;20184;-88
2022/07/04 07:27:26;;;;;;;2.85;0.77;;;20.30;95.10;;;;;;4993061;28;20200;-89
2022/07/04 07:29:52;;;;;;;3.45;0.80;;;20.40;95.50;;;;;;4993034;28;20294;-87
2022/07/04 07:32:17;;;;;;;1.50;0.70;;;20.60;95.30;;;;;;4992569;28;20330;-89
2022/07/04 07:34:43;;;;;;;3.55;0.70;;;20.70;94.90;;;;;;5012695;28;20191;-89
2022/07/04 07:37:09;;;;;;;1.45;0.82;;;21.00;94.80;;;;;;5013169;28;20249;-88
2022/07/04 07:39:35;;;;;;;2.22;0.70;;;21.10;93.60;;;;;;5012715;28;20180;-89
2022/07/04 07:42:01;;;;;;;2.75;0.80;;;20.90;94.20;;;;;;4974119;28;20177;-89
2022/07/04 07:44:27;;;;;;;1.95;0.85;;;20.60;94.30;;;;;;4974036;28;20164;-89
2022/07/04 07:46:52;;;;;;;2.50;0.90;;;20.50;94.20;;;;;;4973580;28;20204;-89
2022/07/04 07:49:18;;;;;;;4.07;0.80;;;20.40;94.80;;;;;;4986037;28;20266;-88
2022/07/04 07:51:44;;;;;;;1.42;0.75;;;20.50;94.70;;;;;;4993907;28;20195;-89
2022/07/04 07:54:10;;;;;;;2.28;0.80;;;20.80;95.40;;;;;;4993058;28;20678;-88
2022/07/04 07:56:36;;;;;;;4.43;1.05;;;21.10;94.60;;;;;;5011331;28;20203;-88
2022/07/04 07:59:01;;;;;;;2.00;1.00;;;21.40;93.80;;;;;;5012641;28;20584;-88
2022/07/04 08:01:27;;;;;;;1.42;0.73;;;21.40;93.10;;;;;;5003051;28;20183;-88
2022/07/04 08:06:38;;;;;;;2.67;0.70;;;21.70;92.90;;;;;;4994201;28;20260;-89
2022/07/04 08:09:05;;;;;;;2.42;0.75;;;21.60;93.40;;;;;;4996763;28;20188;-88
2022/07/04 08:11:32;;;;;;;2.40;0.77;;;21.40;93.30;;;;;;4994480;28;20589;-88
2022/07/04 08:14:06;;;;;;;1.77;0.77;;;21.30;92.90;;;;;;4995299;28;20238;-88
2022/07/04 08:16:32;;;;;;;1.30;0.65;;;21.00;92.80;;;;;;4994150;28;20191;-90
2022/07/04 08:18:57;;;;;;;2.00;0.65;;;21.00;93.00;;;;;;4992876;28;20224;-87
2022/07/04 08:21:23;;;;;;;1.83;0.77;;;21.10;93.80;;;;;;4992925;28;20187;-90
2022/07/04 08:23:49;;;;;;;1.10;0.68;;;21.40;94.20;;;;;;4992491;28;20250;-88
2022/07/04 08:26:15;;;;;;;2.55;0.70;;;21.70;93.60;;;;;;4994692;28;20246;-89
2022/07/04 08:28:40;;;;;;;3.03;0.82;;;22.00;92.50;;;;;;5011697;28;20183;-89
2022/07/04 08:31:06;;;;;;;1.45;0.50;;;22.10;92.00;;;;;;5009254;28;20196;-88
2022/07/04 08:33:35;;;;;;;2.47;0.90;;;22.10;92.20;;;;;;4992220;28;20190;-89
2022/07/04 08:36:01;;;;;;;1.90;0.63;;;22.20;92.40;;;;;;5008935;28;20215;-88
2022/07/04 08:38:26;;;;;;;1.20;0.63;;;22.50;92.90;;;;;;4992704;28;20172;-88
2022/07/04 08:40:57;;;;;;;1.02;0.77;;;22.60;92.70;;;;;;4992368;28;20172;-88
2022/07/04 08:43:24;;;;;;;1.33;0.68;;;22.90;92.00;;;;;;5008504;28;20223;-90
2022/07/04 08:45:53;;;;;;;1.60;0.68;;;22.90;91.30;;;;;;5008642;28;20760;-89
2022/07/04 08:48:23;;;;;;;1.95;0.60;;;23.10;92.70;;;;;;5023693;28;20248;-89
2022/07/04 08:50:55;;;;;;;1.05;0.70;;;23.20;91.70;;;;;;5012072;28;20230;-88
2022/07/04 08:53:22;;;;;;;3.13;1.10;;;23.10;90.80;;;;;;5011792;28;20650;-88
2022/07/04 08:58:49;;;;;;;2.35;0.90;;;22.80;91.50;;;;;;5012343;28;20709;-88
2022/07/04 09:01:15;;;;;;;1.77;0.60;;;22.90;91.20;;;;;;5011332;28;20174;-89
2022/07/04 09:03:44;;;;;;;2.45;0.70;;;23.00;91.00;;;;;;4991898;28;20576;-89
2022/07/04 09:06:11;;;;;;;1.42;0.75;;;23.10;90.10;;;;;;4992237;28;20203;-89
2022/07/04 09:08:40;;;;;;;4.93;0.75;;;23.40;90.30;;;;;;4991840;28;20562;-88
2022/07/04 09:11:07;;;;;;;3.28;0.77;;;23.40;90.20;;;;;;4993087;28;20253;-88
2022/07/04 09:13:34;;;;;;;3.50;0.68;;;23.30;89.10;;;;;;4992081;28;20182;-90
2022/07/04 09:16:01;;;;;;;1.00;0.65;;;22.70;90.20;;;;;;4991492;28;20210;-88
2022/07/04 09:18:32;;;;;;;2.10;0.70;;;22.30;91.20;;;;;;4991038;28;20168;-90
2022/07/04 09:21:00;;;;;;;0.90;0.60;;;22.10;92.20;;;;;;4991866;28;20184;-89
2022/07/04 09:23:42;;;;;;;2.03;0.70;;;22.50;91.00;;;;;;4997359;28;20235;-90
2022/07/04 09:26:13;;;;;;;3.40;0.80;;;22.80;90.60;;;;;;5011116;28;20207;-89
2022/07/04 09:28:44;;;;;;;3.38;1.10;;;23.00;90.20;;;;;;5010076;28;20180;-90
2022/07/04 09:31:15;;;;;;;1.80;0.57;;;23.30;89.70;;;;;;5011241;28;20221;-90
2022/07/04 09:33:49;;;;;;;2.90;0.70;;;23.40;89.20;;;;;;5025789;28;20650;-90
2022/07/04 09:36:20;;;;;;;2.78;0.95;;;23.30;87.80;;;;;;5011323;28;20230;-88
2022/07/04 09:39:17;;;;;;;3.20;0.90;;;22.90;90.40;;;;;;5010790;28;20183;-88
2022/07/04 09:41:56;;;;;;;1.60;0.60;;;22.50;90.40;;;;;;4991644;28;20681;-88
2022/07/04 09:44:26;;;;;;;2.83;0.80;;;22.60;90.20;;;;;;4993449;28;20176;-88
2022/07/04 09:46:52;;;;;;;2.72;0.90;;;22.90;89.50;;;;;;4988982;28;20203;-88
2022/07/04 09:49:19;;;;;;;1.83;0.90;;;23.10;88.60;;;;;;4990670;28;20271;-88
2022/07/04 09:51:51;;;;;;;3.85;0.88;;;23.40;88.10;;;;;;4992016;28;20196;-88
2022/07/04 09:54:25;;;;;;;1.65;0.60;;;23.70;87.30;;;;;;4990941;28;20176;-87
2022/07/04 09:56:53;;;;;;;2.08;0.80;;;23.90;87.30;;;;;;4990517;28;20199;-90
2022/07/04 09:59:19;;;;;;;1.65;0.88;;;24.20;87.70;;;;;;5007098;28;20168;-88
2022/07/04 10:01:46;;;;;;;1.90;0.70;;;24.30;86.90;;;;;;5007439;28;20647;-88
2022/07/04 10:04:13;;;;;;;1.92;0.80;;;24.30;83.70;;;;;;5007279;28;20179;-87
2022/07/04 10:06:44;;;;;;;2.08;0.63;;;24.00;86.70;;;;;;5007042;28;20215;-89
2022/07/04 10:09:17;;;;;;;1.52;0.60;;;24.00;88.40;;;;;;4997476;28;20191;-88
2022/07/04 10:11:45;;;;;;;0.90;0.60;;;24.00;86.00;;;;;;4992375;28;20206;-88
2022/07/04 10:14:13;;;;;;;2.03;0.60;;;24.10;85.20;;;;;;4990383;28;20176;-89
2022/07/04 10:16:40;;;;;;;3.15;0.85;;;24.10;85.10;;;;;;5006399;28;20195;-88
2022/07/04 10:19:07;;;;;;;1.60;0.60;;;24.30;82.90;;;;;;5002884;28;20184;-89
2022/07/04 10:21:33;;;;;;;1.30;0.57;;;24.40;83.90;;;;;;5003359;28;20187;-88
2022/07/04 10:24:05;;;;;;;0.98;0.63;;;24.60;84.20;;;;;;4990055;28;20231;-87
2022/07/04 10:26:32;;;;;;;1.63;0.50;;;24.50;83.90;;;;;;4982919;28;20341;-88
2022/07/04 10:28:58;;;;;;;4.47;0.60;;;24.40;82.30;;;;;;4990239;28;20231;-88
2022/07/04 10:31:27;;;;;;;2.03;0.63;;;24.30;84.20;;;;;;4990060;28;20215;-89
2022/07/04 10:33:54;;;;;;;1.58;0.60;;;24.50;83.30;;;;;;4989599;28;20168;-88
2022/07/04 10:36:22;;;;;;;0.52;0.40;;;24.70;84.50;;;;;;4990498;28;20622;-87
2022/07/04 10:38:51;;;;;;;1.10;0.63;;;24.90;83.00;;;;;;4989414;28;20231;-88
2022/07/04 10:41:22;;;;;;;2.90;0.88;;;24.50;81.30;;;;;;4990985;28;20180;-91
2022/07/04 10:43:48;;;;;;;1.85;0.63;;;24.00;80.30;;;;;;4991221;28;20606;-89
2022/07/04 10:46:19;;;;;;;1.55;0.70;;;23.60;83.30;;;;;;4990314;28;20215;-88
2022/07/04 10:48:52;;;;;;;1.35;0.40;;;23.70;85.30;;;;;;4989832;28;20176;-88
2022/07/04 10:51:45;;;;;;;1.30;0.50;;;24.00;83.20;;;;;;4990073;28;20199;-89
2022/07/04 10:54:38;;;;;;;2.97;0.60;;;24.30;82.20;;;;;;4989970;28;20180;-88
2022/07/04 10:57:11;;;;;;;1.77;0.75;;;24.60;80.50;;;;;;4987122;28;20222;-88
2022/07/04 10:59:38;;;;;;;0.63;0.47;;;24.80;81.20;;;;;;4993937;28;20734;-88
2022/07/04 11:02:09;;;;;;;1.00;0.30;;;25.10;77.40;;;;;;4994324;28;20222;-88
2022/07/04 11:04:55;;;;;;;3.78;0.50;;;25.20;75.70;;;;;;5009939;28;20199;-88
2022/07/04 11:07:29;;;;;;;0.30;0.30;;;25.20;75.70;;;;;;5010225;28;20214;-88
2022/07/04 11:10:11;;;;;;;1.02;0.50;;;25.40;74.10;;;;;;5010066;28;20178;-88
2022/07/04 11:12:55;;;;;;;0.75;0.45;;;25.40;74.20;;;;;;5010418;28;20164;-88
2022/07/04 11:15:27;;;;;;;1.58;0.40;;;25.20;73.00;;;;;;5009987;28;20168;-88
2022/07/04 11:17:58;;;;;;;1.20;0.40;;;25.20;74.60;;;;;;4997093;28;20172;-89
2022/07/04 11:20:26;;;;;;;1.17;0.45;;;25.30;77.40;;;;;;5013324;28;20678;-88
2022/07/04 11:23:04;;;;;;;1.33;0.40;;;25.30;77.00;;;;;;4993445;28;20242;-88
2022/07/04 11:25:44;;;;;;;1.55;0.50;;;25.50;76.60;;;;;;4994125;28;20195;-89
2022/07/04 11:28:35;;;;;;;1.15;0.43;;;25.60;76.70;;;;;;4973334;28;20168;-88
2022/07/04 11:31:01;;;;;;;0.80;0.40;;;25.50;75.00;;;;;;4972484;28;20611;-88
2022/07/04 11:33:30;;;;;;;2.00;0.50;;;25.70;76.30;;;;;;4991078;28;20188;-87
2022/07/04 11:36:25;;;;;;;1.25;0.45;;;25.80;77.60;;;;;;4994275;28;20200;-89
2022/07/04 11:38:53;;;;;;;0.40;0.30;;;26.10;77.40;;;;;;4976895;28;20188;-88
2022/07/04 11:47:12;;;;;;;1.95;0.60;;;26.40;76.90;;;;;;4994727;28;20207;-89
2022/07/04 11:49:49;;;;;;;2.42;0.40;;;26.50;74.00;;;;;;4992816;28;20172;-88
2022/07/04 11:52:19;;;;;;;0.57;0.30;;;26.60;73.70;;;;;;4992996;28;20718;-88
2022/07/04 11:54:46;;;;;;;1.20;0.40;;;26.60;74.90;;;;;;4994004;28;20447;-88
2022/07/04 11:57:14;;;;;;;1.27;0.40;;;26.50;72.80;;;;;;4993177;28;20196;-89
2022/07/04 11:59:41;;;;;;;0.98;0.40;;;26.50;73.40;;;;;;4994427;28;20252;-88
2022/07/04 12:02:14;;;;;;;2.78;0.30;;;26.60;72.40;;;;;;4992926;28;20172;-89
2022/07/04 12:04:43;;;;;;;1.17;0.57;;;26.70;74.30;;;;;;4992491;28;20489;-88
2022/07/04 12:07:16;;;;;;;0.28;0.22;;;26.70;72.50;;;;;;5005314;28;20294;-88
2022/07/04 12:09:43;;;;;;;0.63;0.40;;;26.80;71.40;;;;;;5011896;28;20191;-89
2022/07/04 12:12:09;;;;;;;1.05;0.35;;;26.70;72.20;;;;;;5012280;28;20653;-90
2022/07/04 12:14:35;;;;;;;1.65;0.30;;;26.60;73.10;;;;;;5012135;28;20183;-88
2022/07/04 12:17:16;;;;;;;1.17;0.40;;;26.60;72.10;;;;;;5011872;28;20665;-88
2022/07/04 12:19:51;;;;;;;4.32;0.40;;;26.60;72.90;;;;;;5012013;28;20631;-89
2022/07/04 12:22:35;;;;;;;1.33;0.30;;;27.00;72.80;;;;;;5011812;28;20222;-87
2022/07/04 12:25:03;;;;;;;1.63;0.40;;;27.00;72.50;;;;;;5002950;28;20332;-87
2022/07/04 12:27:29;;;;;;;1.15;0.47;;;27.00;72.00;;;;;;4992731;28;20208;-89
2022/07/04 12:29:56;;;;;;;0.50;0.30;;;27.10;73.20;;;;;;4992301;28;20206;-88
2022/07/04 12:32:22;;;;;;;1.30;0.60;;;27.30;70.50;;;;;;4992611;28;20602;-88
2022/07/04 12:34:48;;;;;;;0.40;0.30;;;27.30;72.40;;;;;;4992214;28;20263;-88
2022/07/04 12:37:16;;;;;;;1.27;0.40;;;27.60;72.10;;;;;;5008423;28;20211;-88
2022/07/04 12:39:46;;;;;;;0.90;0.30;;;27.70;71.10;;;;;;5008723;28;20212;-90
2022/07/04 12:42:19;;;;;;;0.40;0.40;;;27.30;72.00;;;;;;5008270;28;20172;-89
2022/07/04 12:44:49;;;;;;;2.05;0.30;;;27.10;73.50;;;;;;5008240;28;20188;-89
2022/07/04 12:47:16;;;;;;;0.30;0.30;;;26.80;72.30;;;;;;4993377;28;20605;-88
2022/07/04 12:49:46;;;;;;;1.10;0.45;;;26.50;72.50;;;;;;4992928;28;20213;-88
2022/07/04 12:52:15;;;;;;;1.48;0.50;;;26.60;74.70;;;;;;4992847;28;20252;-88
2022/07/04 12:54:46;;;;;;;0.98;0.30;;;26.90;73.60;;;;;;4994026;28;20270;-88
2022/07/04 12:57:15;;;;;;;0.65;0.45;;;27.00;73.00;;;;;;5011261;28;20250;-88
2022/07/04 12:59:42;;;;;;;0.68;0.40;;;27.30;73.30;;;;;;5010376;28;20191;-89
2022/07/04 13:02:10;;;;;;;0.45;0.20;;;27.60;72.30;;;;;;5003467;28;20202;-88
2022/07/04 13:04:36;;;;;;;1.10;0.30;;;27.60;72.30;;;;;;4991802;28;20192;-88
2022/07/04 13:07:16;;;;;;;1.92;0.60;;;27.30;70.80;;;;;;4991723;28;20679;-90
2022/07/04 13:09:43;;;;;;;0.88;0.30;;;26.90;71.60;;;;;;5008240;28;20175;-88
2022/07/04 13:12:28;;;;;;;4.38;0.43;;;26.70;72.70;;;;;;5007721;28;20270;-89